Pactola Lake, South Dakota
Current Conditions -  °F | °C
As of 1:58 AM on Friday 19 Dec 2014 (Local Time) from KRCA Reporting Station
Clear Clear  
Wind Chill: 17°   Ceiling: Unl
Heat Index: 24°   Visibility: 10mi
Dew Point: 17°   Wind: 6mph
Humidity: 73%   Direction: 270°W
Pressure: 29.98"   Gusts: NA
Location:  44.07°N, 103.324°W
Report Text: KRCA 190858Z AUTO 27005KT 10SM CLR M04/M08 A2998 RMK AO2 SLP179 T10431084 55006 $
Loading
Personal Weather Stations






























Interactive Weather Map New forecast layout! Learn more

10-Day Weather Forecast

Advertisements
Track Severe Weather on mobile